Amis Wisdom Vi — 3FVW4 — position and weather

sailwx.info

Track history (hours):
 
Tides and Currents Weather Stations Pressure Air Temp Water Temp Dewpoint Dewpoint Depression Visibility Wind Speed Wind Dir Waves Ship Positions

Amis Wisdom Vi

Last reported at 2017-Dec-11 08:19 UTC. Time now 2017-Dec-13 01:37 UTC.
Position N 45°02' E 036°33'.

Length 200 m; draft 6.9 m.

Type: Cargo ship. MMSI: 371897000.

Date/timePositionNaut miles runAvg speedWind from/ knotsBaromVisibWave heightAir tempDewpointWater temp
2017-Dec-11 08:19N 45°02' E 036°33'0 0.0
2017-Dec-11 02:48N 45°02' E 036°33'0 0.0
2017-Dec-10 06:27N 45°02' E 036°33'0 0.0
2017-Dec-10 05:51N 45°02' E 036°33'0 0.0
2017-Dec-09 12:53N 45°02' E 036°33'0 0.0
2017-Dec-09 11:30N 45°02' E 036°33'0 0.0
2017-Dec-09 10:09N 45°02' E 036°33'0 0.0
2017-Dec-08 09:17N 45°02' E 036°33'0 0.0
2017-Dec-08 06:41N 45°02' E 036°33'  
2017-Dec-04 09:44N 45°02' E 036°33'0 0.0
2017-Dec-04 08:26N 45°02' E 036°33'0 0.0
2017-Dec-04 07:17N 45°02' E 036°33'1 0.2
2017-Dec-04 03:13N 45°03' E 036°32'12 1.5
2017-Dec-03 19:06N 44°51' E 036°34'0 0.4
2017-Dec-03 19:00N 44°51' E 036°34'0 0.0
2017-Dec-03 18:30N 44°51' E 036°34'0 0.0
2017-Dec-03 15:03N 44°51' E 036°34'0 0.2
2017-Dec-03 15:00N 44°51' E 036°34'0 0.1
2017-Dec-03 14:30N 44°51' E 036°34'0 0.0
2017-Dec-03 14:00N 44°51' E 036°34'0 0.0
2017-Dec-03 13:24N 44°51' E 036°34'0 0.0
2017-Dec-03 12:57N 44°51' E 036°34'0 0.0
2017-Dec-03 08:24N 44°51' E 036°34'0 0.1
2017-Dec-03 08:00N 44°51' E 036°34'0 0.1
2017-Dec-03 07:30N 44°51' E 036°34'0 0.0
2017-Dec-03 06:57N 44°51' E 036°34'0 0.1
2017-Dec-03 06:30N 44°51' E 036°34'0 0.1
2017-Dec-03 05:57N 44°51' E 036°34'0 0.1
2017-Dec-03 05:30N 44°51' E 036°34'0 0.0
2017-Dec-03 04:21N 44°51' E 036°34'0 0.0
2017-Dec-03 03:54N 44°51' E 036°34'0 0.0
2017-Dec-03 02:30N 44°51' E 036°34'2 0.3
2017-Dec-02 21:32N 44°50' E 036°32'2 8.4
2017-Dec-02 21:16N 44°48' E 036°34'9 0.4
2017-Dec-02 01:25N 44°52' E 036°45'0 0.0
2017-Dec-02 00:49N 44°52' E 036°45'0 0.0
2017-Dec-01 23:43N 44°52' E 036°45'  
Track history (hours):
 
Tides and Currents Weather Stations Pressure Air Temp Water Temp Dewpoint Dewpoint Depression Visibility Wind Speed Wind Dir Waves Ship Positions

Amis Wisdom Vi

Last reported at 2017-Dec-11 08:19 UTC. Time now 2017-Dec-13 01:37 UTC.
Position N 45°02' E 036°33'.

Length 200 m; draft 6.9 m.

Type: Cargo ship. MMSI: 371897000.

Date/timePositionNaut miles runAvg speedWind from/ knotsBaromVisibWave heightAir tempDewpointWater temp
2017-Dec-11 08:19N 45°02' E 036°33'0 0.0
2017-Dec-11 02:48N 45°02' E 036°33'0 0.0
2017-Dec-10 06:27N 45°02' E 036°33'0 0.0
2017-Dec-10 05:51N 45°02' E 036°33'0 0.0
2017-Dec-09 12:53N 45°02' E 036°33'0 0.0
2017-Dec-09 11:30N 45°02' E 036°33'0 0.0
2017-Dec-09 10:09N 45°02' E 036°33'0 0.0
2017-Dec-08 09:17N 45°02' E 036°33'0 0.0
2017-Dec-08 06:41N 45°02' E 036°33'  
2017-Dec-04 09:44N 45°02' E 036°33'0 0.0
2017-Dec-04 08:26N 45°02' E 036°33'0 0.0
2017-Dec-04 07:17N 45°02' E 036°33'1 0.2
2017-Dec-04 03:13N 45°03' E 036°32'12 1.5
2017-Dec-03 19:06N 44°51' E 036°34'0 0.4
2017-Dec-03 19:00N 44°51' E 036°34'0 0.0
2017-Dec-03 18:30N 44°51' E 036°34'0 0.0
2017-Dec-03 15:03N 44°51' E 036°34'0 0.2
2017-Dec-03 15:00N 44°51' E 036°34'0 0.1
2017-Dec-03 14:30N 44°51' E 036°34'0 0.0
2017-Dec-03 14:00N 44°51' E 036°34'0 0.0
2017-Dec-03 13:24N 44°51' E 036°34'0 0.0
2017-Dec-03 12:57N 44°51' E 036°34'0 0.0
2017-Dec-03 08:24N 44°51' E 036°34'0 0.1
2017-Dec-03 08:00N 44°51' E 036°34'0 0.1
2017-Dec-03 07:30N 44°51' E 036°34'0 0.0
2017-Dec-03 06:57N 44°51' E 036°34'0 0.1
2017-Dec-03 06:30N 44°51' E 036°34'0 0.1
2017-Dec-03 05:57N 44°51' E 036°34'0 0.1
2017-Dec-03 05:30N 44°51' E 036°34'0 0.0
2017-Dec-03 04:21N 44°51' E 036°34'0 0.0
2017-Dec-03 03:54N 44°51' E 036°34'0 0.0
2017-Dec-03 02:30N 44°51' E 036°34'2 0.3
2017-Dec-02 21:32N 44°50' E 036°32'2 8.4
2017-Dec-02 21:16N 44°48' E 036°34'9 0.4
2017-Dec-02 01:25N 44°52' E 036°45'0 0.0
2017-Dec-02 00:49N 44°52' E 036°45'0 0.0
2017-Dec-01 23:43N 44°52' E 036°45'  

Dump ship's entire track history